sensor_id;sensor_type;location;lat;lon;timestamp;P1;durP1;ratioP1;P2;durP2;ratioP2
2338;SDS011;1180;51.438;6.978;2022-10-04T00:02:23;14.27;;;5.23;;
2338;SDS011;1180;51.438;6.978;2022-10-04T00:04:55;5.70;;;4.20;;
2338;SDS011;1180;51.438;6.978;2022-10-04T00:07:32;5.40;;;4.10;;
2338;SDS011;1180;51.438;6.978;2022-10-04T00:10:03;6.20;;;4.20;;
2338;SDS011;1180;51.438;6.978;2022-10-04T00:12:45;13.90;;;4.97;;
2338;SDS011;1180;51.438;6.978;2022-10-04T00:15:35;10.57;;;4.63;;
2338;SDS011;1180;51.438;6.978;2022-10-04T00:18:04;8.57;;;5.37;;
2338;SDS011;1180;51.438;6.978;2022-10-04T00:25:52;5.40;;;4.23;;
2338;SDS011;1180;51.438;6.978;2022-10-04T00:33:45;7.23;;;4.33;;
2338;SDS011;1180;51.438;6.978;2022-10-04T00:47:30;4.97;;;3.97;;
2338;SDS011;1180;51.438;6.978;2022-10-04T00:50:21;6.73;;;3.53;;
2338;SDS011;1180;51.438;6.978;2022-10-04T00:52:59;8.57;;;4.23;;
2338;SDS011;1180;51.438;6.978;2022-10-04T00:55:37;8.17;;;4.07;;
2338;SDS011;1180;51.438;6.978;2022-10-04T00:58:28;7.73;;;3.93;;
2338;SDS011;1180;51.438;6.978;2022-10-04T01:00:57;8.90;;;5.17;;
2338;SDS011;1180;51.438;6.978;2022-10-04T01:03:27;5.60;;;4.10;;
2338;SDS011;1180;51.438;6.978;2022-10-04T01:05:58;8.40;;;4.83;;
2338;SDS011;1180;51.438;6.978;2022-10-04T01:13:50;7.20;;;4.23;;
2338;SDS011;1180;51.438;6.978;2022-10-04T01:16:25;6.20;;;5.47;;
2338;SDS011;1180;51.438;6.978;2022-10-04T01:18:52;8.03;;;4.33;;
2338;SDS011;1180;51.438;6.978;2022-10-04T01:28:53;7.30;;;4.47;;
2338;SDS011;1180;51.438;6.978;2022-10-04T01:31:24;7.13;;;4.43;;
2338;SDS011;1180;51.438;6.978;2022-10-04T01:33:50;7.50;;;4.20;;
2338;SDS011;1180;51.438;6.978;2022-10-04T01:36:16;8.17;;;5.00;;
2338;SDS011;1180;51.438;6.978;2022-10-04T01:38:42;9.20;;;4.20;;
2338;SDS011;1180;51.438;6.978;2022-10-04T01:41:07;5.63;;;4.50;;
2338;SDS011;1180;51.438;6.978;2022-10-04T01:43:36;8.67;;;4.60;;
2338;SDS011;1180;51.438;6.978;2022-10-04T01:46:15;6.13;;;3.67;;
2338;SDS011;1180;51.438;6.978;2022-10-04T01:48:47;4.13;;;3.67;;
2338;SDS011;1180;51.438;6.978;2022-10-04T01:51:20;6.70;;;4.47;;
2338;SDS011;1180;51.438;6.978;2022-10-04T01:57:11;6.93;;;4.23;;
2338;SDS011;1180;51.438;6.978;2022-10-04T01:59:21;6.60;;;4.13;;
2338;SDS011;1180;51.438;6.978;2022-10-04T02:01:51;5.67;;;3.80;;
2338;SDS011;1180;51.438;6.978;2022-10-04T02:04:31;9.97;;;4.37;;
2338;SDS011;1180;51.438;6.978;2022-10-04T02:07:02;9.40;;;4.50;;
2338;SDS011;1180;51.438;6.978;2022-10-04T02:09:36;6.90;;;4.20;;
2338;SDS011;1180;51.438;6.978;2022-10-04T02:12:05;9.33;;;5.10;;
2338;SDS011;1180;51.438;6.978;2022-10-04T02:14:31;4.90;;;3.70;;
2338;SDS011;1180;51.438;6.978;2022-10-04T02:16:57;6.60;;;4.37;;
2338;SDS011;1180;51.438;6.978;2022-10-04T02:19:27;4.00;;;3.50;;
2338;SDS011;1180;51.438;6.978;2022-10-04T02:21:59;8.77;;;3.77;;
2338;SDS011;1180;51.438;6.978;2022-10-04T02:24:28;10.63;;;4.23;;
2338;SDS011;1180;51.438;6.978;2022-10-04T02:26:54;9.90;;;4.90;;
2338;SDS011;1180;51.438;6.978;2022-10-04T02:29:20;6.87;;;4.43;;
2338;SDS011;1180;51.438;6.978;2022-10-04T02:31:47;6.23;;;4.00;;
2338;SDS011;1180;51.438;6.978;2022-10-04T02:34:33;4.80;;;4.40;;
2338;SDS011;1180;51.438;6.978;2022-10-04T02:37:00;7.20;;;4.43;;
2338;SDS011;1180;51.438;6.978;2022-10-04T02:39:32;5.00;;;4.57;;
2338;SDS011;1180;51.438;6.978;2022-10-04T02:42:03;7.73;;;5.27;;
2338;SDS011;1180;51.438;6.978;2022-10-04T02:44:40;6.23;;;4.40;;
2338;SDS011;1180;51.438;6.978;2022-10-04T02:47:23;6.13;;;4.80;;
2338;SDS011;1180;51.438;6.978;2022-10-04T02:50:12;6.10;;;4.10;;
2338;SDS011;1180;51.438;6.978;2022-10-04T02:53:11;11.33;;;4.77;;
2338;SDS011;1180;51.438;6.978;2022-10-04T02:55:43;11.23;;;4.80;;
2338;SDS011;1180;51.438;6.978;2022-10-04T02:58:12;5.53;;;4.60;;
2338;SDS011;1180;51.438;6.978;2022-10-04T03:00:46;6.93;;;4.70;;
2338;SDS011;1180;51.438;6.978;2022-10-04T03:03:15;5.87;;;5.17;;
2338;SDS011;1180;51.438;6.978;2022-10-04T03:05:42;5.77;;;4.70;;
2338;SDS011;1180;51.438;6.978;2022-10-04T03:08:11;10.70;;;6.30;;
2338;SDS011;1180;51.438;6.978;2022-10-04T03:10:37;7.03;;;5.27;;
2338;SDS011;1180;51.438;6.978;2022-10-04T03:13:03;8.00;;;5.07;;
2338;SDS011;1180;51.438;6.978;2022-10-04T03:15:29;7.40;;;5.03;;
2338;SDS011;1180;51.438;6.978;2022-10-04T03:17:55;5.23;;;4.73;;
2338;SDS011;1180;51.438;6.978;2022-10-04T03:20:21;8.33;;;6.03;;
2338;SDS011;1180;51.438;6.978;2022-10-04T03:22:49;7.90;;;5.87;;
2338;SDS011;1180;51.438;6.978;2022-10-04T03:25:17;8.37;;;5.70;;
2338;SDS011;1180;51.438;6.978;2022-10-04T03:27:47;8.17;;;5.83;;
2338;SDS011;1180;51.438;6.978;2022-10-04T03:30:15;7.17;;;5.60;;
2338;SDS011;1180;51.438;6.978;2022-10-04T03:32:44;7.60;;;6.13;;
2338;SDS011;1180;51.438;6.978;2022-10-04T03:38:05;8.07;;;6.93;;
2338;SDS011;1180;51.438;6.978;2022-10-04T03:40:33;9.20;;;6.47;;
2338;SDS011;1180;51.438;6.978;2022-10-04T03:43:02;6.90;;;6.17;;
2338;SDS011;1180;51.438;6.978;2022-10-04T03:45:29;12.93;;;6.30;;
2338;SDS011;1180;51.438;6.978;2022-10-04T03:48:01;6.27;;;4.90;;
2338;SDS011;1180;51.438;6.978;2022-10-04T03:50:32;6.93;;;5.77;;
2338;SDS011;1180;51.438;6.978;2022-10-04T03:53:06;5.97;;;5.43;;
2338;SDS011;1180;51.438;6.978;2022-10-04T03:55:36;8.40;;;5.50;;
2338;SDS011;1180;51.438;6.978;2022-10-04T03:58:08;7.10;;;4.70;;
2338;SDS011;1180;51.438;6.978;2022-10-04T04:00:38;12.00;;;6.73;;
2338;SDS011;1180;51.438;6.978;2022-10-04T04:03:10;6.60;;;5.60;;
2338;SDS011;1180;51.438;6.978;2022-10-04T04:05:48;9.33;;;5.30;;
2338;SDS011;1180;51.438;6.978;2022-10-04T04:08:29;5.90;;;5.30;;
2338;SDS011;1180;51.438;6.978;2022-10-04T04:10:58;7.80;;;5.17;;
2338;SDS011;1180;51.438;6.978;2022-10-04T04:13:32;9.47;;;6.20;;
2338;SDS011;1180;51.438;6.978;2022-10-04T04:16:07;9.33;;;6.90;;
2338;SDS011;1180;51.438;6.978;2022-10-04T04:18:34;8.43;;;5.77;;
2338;SDS011;1180;51.438;6.978;2022-10-04T04:21:02;9.03;;;5.97;;
2338;SDS011;1180;51.438;6.978;2022-10-04T04:28:55;9.20;;;7.30;;
2338;SDS011;1180;51.438;6.978;2022-10-04T04:31:31;8.33;;;6.20;;
2338;SDS011;1180;51.438;6.978;2022-10-04T04:34:01;6.60;;;5.40;;
2338;SDS011;1180;51.438;6.978;2022-10-04T04:36:31;10.37;;;6.50;;
2338;SDS011;1180;51.438;6.978;2022-10-04T04:39:07;11.73;;;7.23;;
2338;SDS011;1180;51.438;6.978;2022-10-04T04:44:52;14.30;;;6.90;;
2338;SDS011;1180;51.438;6.978;2022-10-04T04:47:36;7.03;;;6.23;;
2338;SDS011;1180;51.438;6.978;2022-10-04T04:50:07;12.20;;;6.83;;
2338;SDS011;1180;51.438;6.978;2022-10-04T04:52:37;7.07;;;5.77;;
2338;SDS011;1180;51.438;6.978;2022-10-04T04:55:13;9.10;;;6.10;;
2338;SDS011;1180;51.438;6.978;2022-10-04T04:57:42;8.70;;;5.70;;
2338;SDS011;1180;51.438;6.978;2022-10-04T05:00:13;9.23;;;6.80;;
2338;SDS011;1180;51.438;6.978;2022-10-04T05:02:49;10.70;;;6.60;;
2338;SDS011;1180;51.438;6.978;2022-10-04T05:05:17;8.00;;;6.27;;
2338;SDS011;1180;51.438;6.978;2022-10-04T05:07:45;8.15;;;6.70;;
2338;SDS011;1180;51.438;6.978;2022-10-04T05:10:24;13.00;;;6.37;;
2338;SDS011;1180;51.438;6.978;2022-10-04T05:12:55;6.53;;;5.40;;
2338;SDS011;1180;51.438;6.978;2022-10-04T05:15:23;6.27;;;5.20;;
2338;SDS011;1180;51.438;6.978;2022-10-04T05:17:49;11.13;;;6.20;;
2338;SDS011;1180;51.438;6.978;2022-10-04T05:20:15;11.47;;;5.90;;
2338;SDS011;1180;51.438;6.978;2022-10-04T05:22:42;7.53;;;6.73;;
2338;SDS011;1180;51.438;6.978;2022-10-04T05:25:31;6.87;;;6.17;;
2338;SDS011;1180;51.438;6.978;2022-10-04T05:27:57;6.87;;;4.97;;
2338;SDS011;1180;51.438;6.978;2022-10-04T05:33:13;6.33;;;4.73;;
2338;SDS011;1180;51.438;6.978;2022-10-04T05:41:16;5.63;;;4.50;;
2338;SDS011;1180;51.438;6.978;2022-10-04T05:43:44;8.50;;;4.67;;
2338;SDS011;1180;51.438;6.978;2022-10-04T05:46:29;9.30;;;5.40;;
2338;SDS011;1180;51.438;6.978;2022-10-04T05:48:58;8.23;;;4.67;;
2338;SDS011;1180;51.438;6.978;2022-10-04T05:51:29;9.03;;;4.30;;
2338;SDS011;1180;51.438;6.978;2022-10-04T05:54:01;5.80;;;4.57;;
2338;SDS011;1180;51.438;6.978;2022-10-04T05:59:21;7.00;;;4.63;;
2338;SDS011;1180;51.438;6.978;2022-10-04T06:02:32;8.03;;;4.00;;
2338;SDS011;1180;51.438;6.978;2022-10-04T06:05:13;7.40;;;3.70;;
2338;SDS011;1180;51.438;6.978;2022-10-04T06:07:45;5.73;;;3.80;;
2338;SDS011;1180;51.438;6.978;2022-10-04T06:19:52;5.93;;;3.60;;
2338;SDS011;1180;51.438;6.978;2022-10-04T06:22:41;6.20;;;3.83;;
2338;SDS011;1180;51.438;6.978;2022-10-04T06:25:18;9.30;;;4.67;;
2338;SDS011;1180;51.438;6.978;2022-10-04T06:31:00;7.00;;;3.60;;
2338;SDS011;1180;51.438;6.978;2022-10-04T06:39:26;3.80;;;3.37;;
2338;SDS011;1180;51.438;6.978;2022-10-04T06:42:12;7.70;;;4.07;;
2338;SDS011;1180;51.438;6.978;2022-10-04T06:50:22;10.33;;;3.80;;
2338;SDS011;1180;51.438;6.978;2022-10-04T06:58:23;5.67;;;3.77;;
2338;SDS011;1180;51.438;6.978;2022-10-04T07:01:33;6.93;;;3.63;;
2338;SDS011;1180;51.438;6.978;2022-10-04T07:04:34;5.07;;;3.40;;
2338;SDS011;1180;51.438;6.978;2022-10-04T07:15:43;6.20;;;3.60;;
2338;SDS011;1180;51.438;6.978;2022-10-04T07:18:53;6.37;;;3.80;;
2338;SDS011;1180;51.438;6.978;2022-10-04T07:21:41;11.13;;;4.20;;
2338;SDS011;1180;51.438;6.978;2022-10-04T07:24:11;7.27;;;4.30;;
2338;SDS011;1180;51.438;6.978;2022-10-04T07:26:49;5.13;;;2.80;;
2338;SDS011;1180;51.438;6.978;2022-10-04T07:29:31;8.80;;;3.60;;
2338;SDS011;1180;51.438;6.978;2022-10-04T07:34:30;6.00;;;3.33;;
2338;SDS011;1180;51.438;6.978;2022-10-04T07:37:00;6.10;;;3.40;;
2338;SDS011;1180;51.438;6.978;2022-10-04T07:39:42;5.40;;;3.27;;
2338;SDS011;1180;51.438;6.978;2022-10-04T07:42:14;4.13;;;3.70;;
2338;SDS011;1180;51.438;6.978;2022-10-04T07:44:44;5.73;;;3.83;;
2338;SDS011;1180;51.438;6.978;2022-10-04T07:47:22;5.03;;;3.97;;
2338;SDS011;1180;51.438;6.978;2022-10-04T07:49:53;5.07;;;3.50;;
2338;SDS011;1180;51.438;6.978;2022-10-04T07:55:23;4.10;;;3.50;;
2338;SDS011;1180;51.438;6.978;2022-10-04T08:01:00;6.00;;;4.23;;
2338;SDS011;1180;51.438;6.978;2022-10-04T08:03:37;7.03;;;4.63;;
2338;SDS011;1180;51.438;6.978;2022-10-04T08:06:19;7.53;;;3.87;;
2338;SDS011;1180;51.438;6.978;2022-10-04T08:18:40;7.13;;;4.10;;
2338;SDS011;1180;51.438;6.978;2022-10-04T08:21:00;7.00;;;4.20;;
2338;SDS011;1180;51.438;6.978;2022-10-04T08:28:38;4.97;;;3.37;;
2338;SDS011;1180;51.438;6.978;2022-10-04T08:34:44;4.53;;;4.10;;
2338;SDS011;1180;51.438;6.978;2022-10-04T08:40:57;7.67;;;4.07;;
2338;SDS011;1180;51.438;6.978;2022-10-04T08:46:25;5.03;;;4.27;;
2338;SDS011;1180;51.438;6.978;2022-10-04T08:52:27;4.60;;;3.73;;
2338;SDS011;1180;51.438;6.978;2022-10-04T09:25:40;7.83;;;4.10;;
2338;SDS011;1180;51.438;6.978;2022-10-04T09:48:23;7.63;;;4.40;;
2338;SDS011;1180;51.438;6.978;2022-10-04T10:10:28;5.10;;;4.00;;
2338;SDS011;1180;51.438;6.978;2022-10-04T10:13:48;6.57;;;4.00;;
2338;SDS011;1180;51.438;6.978;2022-10-04T10:42:09;4.50;;;3.17;;
2338;SDS011;1180;51.438;6.978;2022-10-04T11:04:50;4.93;;;3.77;;
2338;SDS011;1180;51.438;6.978;2022-10-04T11:13:26;7.77;;;3.27;;
2338;SDS011;1180;51.438;6.978;2022-10-04T11:30:28;7.57;;;3.47;;
2338;SDS011;1180;51.438;6.978;2022-10-04T11:36:37;7.40;;;3.50;;
2338;SDS011;1180;51.438;6.978;2022-10-04T11:42:37;4.17;;;3.00;;
2338;SDS011;1180;51.438;6.978;2022-10-04T11:51:28;4.10;;;3.10;;
2338;SDS011;1180;51.438;6.978;2022-10-04T11:54:30;3.23;;;2.60;;
2338;SDS011;1180;51.438;6.978;2022-10-04T12:00:09;3.30;;;3.00;;
2338;SDS011;1180;51.438;6.978;2022-10-04T12:02:45;4.87;;;2.70;;
2338;SDS011;1180;51.438;6.978;2022-10-04T12:05:22;3.90;;;3.30;;
2338;SDS011;1180;51.438;6.978;2022-10-04T12:10:45;4.10;;;2.70;;
2338;SDS011;1180;51.438;6.978;2022-10-04T12:13:54;7.53;;;3.37;;
2338;SDS011;1180;51.438;6.978;2022-10-04T12:23:28;4.03;;;3.30;;
2338;SDS011;1180;51.438;6.978;2022-10-04T12:31:50;4.83;;;2.40;;
2338;SDS011;1180;51.438;6.978;2022-10-04T12:36:52;6.43;;;3.20;;
2338;SDS011;1180;51.438;6.978;2022-10-04T12:42:38;5.20;;;2.60;;
2338;SDS011;1180;51.438;6.978;2022-10-04T12:45:22;6.83;;;3.27;;
2338;SDS011;1180;51.438;6.978;2022-10-04T12:55:51;5.43;;;3.40;;
2338;SDS011;1180;51.438;6.978;2022-10-04T13:30:45;2.67;;;2.30;;
2338;SDS011;1180;51.438;6.978;2022-10-04T13:36:00;2.83;;;2.60;;
2338;SDS011;1180;51.438;6.978;2022-10-04T13:38:54;3.50;;;3.00;;
2338;SDS011;1180;51.438;6.978;2022-10-04T13:53:22;5.53;;;3.40;;
2338;SDS011;1180;51.438;6.978;2022-10-04T14:01:56;3.70;;;2.90;;
2338;SDS011;1180;51.438;6.978;2022-10-04T14:10:35;7.73;;;3.00;;
2338;SDS011;1180;51.438;6.978;2022-10-04T14:25:03;4.93;;;2.87;;
2338;SDS011;1180;51.438;6.978;2022-10-04T14:48:00;3.13;;;2.70;;
2338;SDS011;1180;51.438;6.978;2022-10-04T14:50:49;3.30;;;2.40;;
2338;SDS011;1180;51.438;6.978;2022-10-04T14:53:51;3.30;;;2.80;;
2338;SDS011;1180;51.438;6.978;2022-10-04T14:59:26;4.30;;;3.00;;
2338;SDS011;1180;51.438;6.978;2022-10-04T15:12:38;4.90;;;3.10;;
2338;SDS011;1180;51.438;6.978;2022-10-04T15:17:37;4.67;;;3.30;;
2338;SDS011;1180;51.438;6.978;2022-10-04T15:28:51;3.23;;;2.40;;
2338;SDS011;1180;51.438;6.978;2022-10-04T15:42:37;6.30;;;3.50;;
2338;SDS011;1180;51.438;6.978;2022-10-04T15:45:24;4.40;;;2.70;;
2338;SDS011;1180;51.438;6.978;2022-10-04T15:48:31;2.93;;;2.73;;
2338;SDS011;1180;51.438;6.978;2022-10-04T15:51:08;5.77;;;3.73;;
2338;SDS011;1180;51.438;6.978;2022-10-04T15:56:11;3.73;;;3.00;;
2338;SDS011;1180;51.438;6.978;2022-10-04T16:04:34;4.10;;;3.47;;
2338;SDS011;1180;51.438;6.978;2022-10-04T16:09:43;5.43;;;3.30;;
2338;SDS011;1180;51.438;6.978;2022-10-04T16:14:57;3.50;;;3.20;;
2338;SDS011;1180;51.438;6.978;2022-10-04T16:20:28;3.97;;;3.40;;
2338;SDS011;1180;51.438;6.978;2022-10-04T16:26:03;6.03;;;2.70;;
2338;SDS011;1180;51.438;6.978;2022-10-04T16:36:46;4.30;;;3.37;;
2338;SDS011;1180;51.438;6.978;2022-10-04T16:40:24;6.23;;;3.10;;
2338;SDS011;1180;51.438;6.978;2022-10-04T16:47:47;4.03;;;3.50;;
2338;SDS011;1180;51.438;6.978;2022-10-04T16:50:52;3.23;;;2.87;;
2338;SDS011;1180;51.438;6.978;2022-10-04T17:01:47;3.70;;;3.30;;
2338;SDS011;1180;51.438;6.978;2022-10-04T17:09:36;3.53;;;3.23;;
2338;SDS011;1180;51.438;6.978;2022-10-04T17:12:15;4.30;;;3.20;;
2338;SDS011;1180;51.438;6.978;2022-10-04T17:14:55;4.80;;;3.57;;
2338;SDS011;1180;51.438;6.978;2022-10-04T17:17:46;4.03;;;3.60;;
2338;SDS011;1180;51.438;6.978;2022-10-04T17:41:15;3.90;;;3.47;;
2338;SDS011;1180;51.438;6.978;2022-10-04T17:46:28;5.13;;;3.60;;
2338;SDS011;1180;51.438;6.978;2022-10-04T17:52:54;6.80;;;4.20;;
2338;SDS011;1180;51.438;6.978;2022-10-04T17:55:55;4.60;;;3.73;;
2338;SDS011;1180;51.438;6.978;2022-10-04T17:58:25;4.40;;;3.80;;
2338;SDS011;1180;51.438;6.978;2022-10-04T18:01:07;5.10;;;3.43;;
2338;SDS011;1180;51.438;6.978;2022-10-04T18:06:33;5.57;;;4.50;;
2338;SDS011;1180;51.438;6.978;2022-10-04T18:09:24;5.70;;;4.10;;
2338;SDS011;1180;51.438;6.978;2022-10-04T18:12:02;5.30;;;4.30;;
2338;SDS011;1180;51.438;6.978;2022-10-04T18:17:00;4.67;;;3.90;;
2338;SDS011;1180;51.438;6.978;2022-10-04T18:19:31;9.27;;;4.10;;
2338;SDS011;1180;51.438;6.978;2022-10-04T18:22:11;6.10;;;4.50;;
2338;SDS011;1180;51.438;6.978;2022-10-04T18:24:42;5.97;;;4.07;;
2338;SDS011;1180;51.438;6.978;2022-10-04T18:29:56;6.40;;;4.50;;
2338;SDS011;1180;51.438;6.978;2022-10-04T18:32:32;4.63;;;4.10;;
2338;SDS011;1180;51.438;6.978;2022-10-04T18:35:00;5.87;;;3.50;;
2338;SDS011;1180;51.438;6.978;2022-10-04T18:37:41;6.30;;;4.13;;
2338;SDS011;1180;51.438;6.978;2022-10-04T18:40:20;5.27;;;4.77;;
2338;SDS011;1180;51.438;6.978;2022-10-04T18:42:52;8.13;;;4.47;;
2338;SDS011;1180;51.438;6.978;2022-10-04T18:47:46;4.80;;;3.67;;
2338;SDS011;1180;51.438;6.978;2022-10-04T18:52:42;5.30;;;4.60;;
2338;SDS011;1180;51.438;6.978;2022-10-04T18:57:59;7.00;;;5.70;;
2338;SDS011;1180;51.438;6.978;2022-10-04T19:00:52;7.00;;;5.33;;
2338;SDS011;1180;51.438;6.978;2022-10-04T19:03:51;7.20;;;5.23;;
2338;SDS011;1180;51.438;6.978;2022-10-04T19:06:23;7.57;;;5.67;;
2338;SDS011;1180;51.438;6.978;2022-10-04T19:11:23;5.83;;;5.33;;
2338;SDS011;1180;51.438;6.978;2022-10-04T19:30:53;5.83;;;5.03;;
2338;SDS011;1180;51.438;6.978;2022-10-04T19:44:02;6.67;;;5.33;;
2338;SDS011;1180;51.438;6.978;2022-10-04T19:52:09;5.90;;;4.87;;
2338;SDS011;1180;51.438;6.978;2022-10-04T19:54:46;5.10;;;4.00;;
2338;SDS011;1180;51.438;6.978;2022-10-04T19:57:17;6.97;;;5.13;;
2338;SDS011;1180;51.438;6.978;2022-10-04T19:59:53;5.77;;;5.27;;
2338;SDS011;1180;51.438;6.978;2022-10-04T20:02:18;8.40;;;5.90;;
2338;SDS011;1180;51.438;6.978;2022-10-04T20:04:44;7.40;;;6.10;;
2338;SDS011;1180;51.438;6.978;2022-10-04T20:12:07;7.67;;;5.77;;
2338;SDS011;1180;51.438;6.978;2022-10-04T20:17:39;7.67;;;4.80;;
2338;SDS011;1180;51.438;6.978;2022-10-04T20:20:05;7.27;;;5.23;;
2338;SDS011;1180;51.438;6.978;2022-10-04T20:22:51;5.37;;;4.90;;
2338;SDS011;1180;51.438;6.978;2022-10-04T20:26:03;6.67;;;6.07;;
2338;SDS011;1180;51.438;6.978;2022-10-04T20:30:51;5.40;;;4.27;;
2338;SDS011;1180;51.438;6.978;2022-10-04T20:33:54;5.17;;;4.77;;
2338;SDS011;1180;51.438;6.978;2022-10-04T20:43:55;6.83;;;4.87;;
2338;SDS011;1180;51.438;6.978;2022-10-04T20:46:27;7.03;;;4.90;;
2338;SDS011;1180;51.438;6.978;2022-10-04T20:49:02;8.67;;;5.30;;
2338;SDS011;1180;51.438;6.978;2022-10-04T20:51:29;5.97;;;4.93;;
2338;SDS011;1180;51.438;6.978;2022-10-04T20:53:57;5.50;;;5.00;;
2338;SDS011;1180;51.438;6.978;2022-10-04T20:56:24;8.30;;;6.57;;
2338;SDS011;1180;51.438;6.978;2022-10-04T20:58:53;8.63;;;5.03;;
2338;SDS011;1180;51.438;6.978;2022-10-04T21:01:24;7.50;;;5.50;;
2338;SDS011;1180;51.438;6.978;2022-10-04T21:06:51;7.33;;;4.70;;
2338;SDS011;1180;51.438;6.978;2022-10-04T21:09:20;5.87;;;5.27;;
2338;SDS011;1180;51.438;6.978;2022-10-04T21:11:47;7.43;;;5.53;;
2338;SDS011;1180;51.438;6.978;2022-10-04T21:14:21;7.97;;;5.27;;
2338;SDS011;1180;51.438;6.978;2022-10-04T21:16:47;7.43;;;5.70;;
2338;SDS011;1180;51.438;6.978;2022-10-04T21:21:58;5.30;;;4.33;;
2338;SDS011;1180;51.438;6.978;2022-10-04T21:30:03;11.53;;;6.70;;
2338;SDS011;1180;51.438;6.978;2022-10-04T21:32:34;7.67;;;5.67;;
2338;SDS011;1180;51.438;6.978;2022-10-04T21:35:00;6.70;;;5.07;;
2338;SDS011;1180;51.438;6.978;2022-10-04T21:37:27;6.33;;;5.40;;
2338;SDS011;1180;51.438;6.978;2022-10-04T21:39:53;5.40;;;4.73;;
2338;SDS011;1180;51.438;6.978;2022-10-04T21:42:19;7.03;;;4.93;;
2338;SDS011;1180;51.438;6.978;2022-10-04T21:44:44;6.07;;;5.10;;
2338;SDS011;1180;51.438;6.978;2022-10-04T21:47:10;9.53;;;5.47;;
2338;SDS011;1180;51.438;6.978;2022-10-04T21:49:35;8.20;;;5.63;;
2338;SDS011;1180;51.438;6.978;2022-10-04T21:52:01;6.43;;;5.70;;
2338;SDS011;1180;51.438;6.978;2022-10-04T21:54:26;6.80;;;5.20;;
2338;SDS011;1180;51.438;6.978;2022-10-04T21:56:52;5.70;;;5.10;;
2338;SDS011;1180;51.438;6.978;2022-10-04T21:59:18;7.60;;;5.30;;
2338;SDS011;1180;51.438;6.978;2022-10-04T22:01:44;7.13;;;5.40;;
2338;SDS011;1180;51.438;6.978;2022-10-04T22:04:10;7.57;;;6.13;;
2338;SDS011;1180;51.438;6.978;2022-10-04T22:06:35;6.23;;;5.63;;
2338;SDS011;1180;51.438;6.978;2022-10-04T22:09:00;7.93;;;6.10;;
2338;SDS011;1180;51.438;6.978;2022-10-04T22:11:26;10.43;;;5.77;;
2338;SDS011;1180;51.438;6.978;2022-10-04T22:13:51;6.13;;;5.53;;
2338;SDS011;1180;51.438;6.978;2022-10-04T22:16:16;7.40;;;5.73;;
2338;SDS011;1180;51.438;6.978;2022-10-04T22:18:42;5.43;;;4.83;;
2338;SDS011;1180;51.438;6.978;2022-10-04T22:21:07;6.90;;;5.40;;
2338;SDS011;1180;51.438;6.978;2022-10-04T22:23:39;19.33;;;6.33;;
2338;SDS011;1180;51.438;6.978;2022-10-04T22:28:44;7.70;;;5.57;;
2338;SDS011;1180;51.438;6.978;2022-10-04T22:31:17;5.90;;;5.20;;
2338;SDS011;1180;51.438;6.978;2022-10-04T22:33:46;6.90;;;4.50;;
2338;SDS011;1180;51.438;6.978;2022-10-04T22:36:17;6.10;;;5.50;;
2338;SDS011;1180;51.438;6.978;2022-10-04T22:38:46;5.63;;;5.10;;
2338;SDS011;1180;51.438;6.978;2022-10-04T22:41:20;7.43;;;6.10;;
2338;SDS011;1180;51.438;6.978;2022-10-04T22:43:46;6.40;;;5.90;;
2338;SDS011;1180;51.438;6.978;2022-10-04T22:46:14;6.60;;;5.10;;
2338;SDS011;1180;51.438;6.978;2022-10-04T22:48:45;6.80;;;5.97;;
2338;SDS011;1180;51.438;6.978;2022-10-04T22:51:13;8.07;;;5.97;;
2338;SDS011;1180;51.438;6.978;2022-10-04T22:53:39;7.23;;;5.53;;
2338;SDS011;1180;51.438;6.978;2022-10-04T22:56:12;7.07;;;4.83;;
2338;SDS011;1180;51.438;6.978;2022-10-04T22:58:39;6.07;;;4.77;;
2338;SDS011;1180;51.438;6.978;2022-10-04T23:01:12;4.90;;;4.30;;
2338;SDS011;1180;51.438;6.978;2022-10-04T23:03:39;5.93;;;4.50;;
2338;SDS011;1180;51.438;6.978;2022-10-04T23:06:08;8.10;;;4.80;;
2338;SDS011;1180;51.438;6.978;2022-10-04T23:08:38;7.30;;;5.40;;
2338;SDS011;1180;51.438;6.978;2022-10-04T23:11:04;6.40;;;5.67;;
2338;SDS011;1180;51.438;6.978;2022-10-04T23:13:29;6.10;;;4.57;;
2338;SDS011;1180;51.438;6.978;2022-10-04T23:15:56;6.90;;;5.10;;
2338;SDS011;1180;51.438;6.978;2022-10-04T23:18:25;4.83;;;4.37;;
2338;SDS011;1180;51.438;6.978;2022-10-04T23:20:54;5.17;;;4.67;;
2338;SDS011;1180;51.438;6.978;2022-10-04T23:23:22;4.63;;;4.20;;
2338;SDS011;1180;51.438;6.978;2022-10-04T23:25:47;5.07;;;4.67;;
2338;SDS011;1180;51.438;6.978;2022-10-04T23:28:14;6.17;;;5.57;;
2338;SDS011;1180;51.438;6.978;2022-10-04T23:30:41;5.03;;;4.20;;
2338;SDS011;1180;51.438;6.978;2022-10-04T23:33:12;5.30;;;4.80;;
2338;SDS011;1180;51.438;6.978;2022-10-04T23:35:43;6.90;;;5.10;;
2338;SDS011;1180;51.438;6.978;2022-10-04T23:38:13;6.10;;;4.63;;
2338;SDS011;1180;51.438;6.978;2022-10-04T23:40:41;9.10;;;5.40;;
2338;SDS011;1180;51.438;6.978;2022-10-04T23:43:14;5.90;;;4.47;;
2338;SDS011;1180;51.438;6.978;2022-10-04T23:45:43;6.30;;;4.67;;
2338;SDS011;1180;51.438;6.978;2022-10-04T23:48:16;7.27;;;4.43;;
2338;SDS011;1180;51.438;6.978;2022-10-04T23:50:47;5.10;;;4.60;;
2338;SDS011;1180;51.438;6.978;2022-10-04T23:53:23;7.80;;;4.30;;
2338;SDS011;1180;51.438;6.978;2022-10-04T23:55:51;5.70;;;4.80;;
2338;SDS011;1180;51.438;6.978;2022-10-04T23:58:22;5.30;;;4.80;;
